sensor_id;sensor_type;location;lat;lon;timestamp;temperature;humidity
17529;DHT22;8882;53.192;8.184;2022-10-16T07:01:59;12.50;99.90
17529;DHT22;8882;53.192;8.184;2022-10-16T07:04:25;12.60;99.90
17529;DHT22;8882;53.192;8.184;2022-10-16T07:06:50;12.60;99.90
17529;DHT22;8882;53.192;8.184;2022-10-16T07:09:17;12.60;99.90
17529;DHT22;8882;53.192;8.184;2022-10-16T07:11:42;12.60;99.90
17529;DHT22;8882;53.192;8.184;2022-10-16T07:14:16;12.70;99.90
17529;DHT22;8882;53.192;8.184;2022-10-16T07:16:42;12.80;99.90
17529;DHT22;8882;53.192;8.184;2022-10-16T07:19:08;12.80;99.90
17529;DHT22;8882;53.192;8.184;2022-10-16T07:21:34;12.90;99.90
17529;DHT22;8882;53.192;8.184;2022-10-16T07:24:05;12.90;99.90
17529;DHT22;8882;53.192;8.184;2022-10-16T07:26:33;12.90;99.90
17529;DHT22;8882;53.192;8.184;2022-10-16T07:28:59;12.90;99.90
17529;DHT22;8882;53.192;8.184;2022-10-16T07:31:24;13.00;99.90
17529;DHT22;8882;53.192;8.184;2022-10-16T07:33:50;13.10;99.90
17529;DHT22;8882;53.192;8.184;2022-10-16T07:36:18;13.10;99.90
17529;DHT22;8882;53.192;8.184;2022-10-16T07:38:45;13.10;99.90
17529;DHT22;8882;53.192;8.184;2022-10-16T07:41:13;13.20;99.90
17529;DHT22;8882;53.192;8.184;2022-10-16T07:43:38;13.20;99.90
17529;DHT22;8882;53.192;8.184;2022-10-16T07:46:04;13.30;99.90
17529;DHT22;8882;53.192;8.184;2022-10-16T07:48:32;13.20;99.90
17529;DHT22;8882;53.192;8.184;2022-10-16T07:50:59;13.30;99.90
17529;DHT22;8882;53.192;8.184;2022-10-16T07:53:25;13.30;99.90
17529;DHT22;8882;53.192;8.184;2022-10-16T07:55:50;13.40;99.90
17529;DHT22;8882;53.192;8.184;2022-10-16T07:58:16;13.40;99.90
17529;DHT22;8882;53.192;8.184;2022-10-16T08:00:41;13.50;99.90
17529;DHT22;8882;53.192;8.184;2022-10-16T08:03:08;13.60;99.90
17529;DHT22;8882;53.192;8.184;2022-10-16T08:05:33;13.60;99.90
17529;DHT22;8882;53.192;8.184;2022-10-16T08:08:00;13.80;99.90
17529;DHT22;8882;53.192;8.184;2022-10-16T08:10:27;13.80;99.90
17529;DHT22;8882;53.192;8.184;2022-10-16T08:12:53;13.90;99.90
17529;DHT22;8882;53.192;8.184;2022-10-16T08:15:19;14.00;99.90
17529;DHT22;8882;53.192;8.184;2022-10-16T08:17:55;14.00;99.90
17529;DHT22;8882;53.192;8.184;2022-10-16T08:20:20;14.00;99.90
17529;DHT22;8882;53.192;8.184;2022-10-16T08:22:46;14.10;99.90
17529;DHT22;8882;53.192;8.184;2022-10-16T08:25:11;14.10;99.90
17529;DHT22;8882;53.192;8.184;2022-10-16T08:27:36;14.00;99.90
17529;DHT22;8882;53.192;8.184;2022-10-16T08:30:02;14.10;99.90
17529;DHT22;8882;53.192;8.184;2022-10-16T08:32:28;14.10;99.90
17529;DHT22;8882;53.192;8.184;2022-10-16T08:34:53;14.10;99.90
17529;DHT22;8882;53.192;8.184;2022-10-16T08:37:19;14.20;99.90
17529;DHT22;8882;53.192;8.184;2022-10-16T08:39:44;14.20;99.90
17529;DHT22;8882;53.192;8.184;2022-10-16T08:50:41;14.50;99.90
17529;DHT22;8882;53.192;8.184;2022-10-16T08:53:22;14.60;99.90
17529;DHT22;8882;53.192;8.184;2022-10-16T08:55:51;14.60;99.90
17529;DHT22;8882;53.192;8.184;2022-10-16T09:00:47;14.60;99.90
17529;DHT22;8882;53.192;8.184;2022-10-16T09:06:34;14.50;99.90
17529;DHT22;8882;53.192;8.184;2022-10-16T09:11:40;14.50;99.90
17529;DHT22;8882;53.192;8.184;2022-10-16T09:14:50;14.70;99.90
17529;DHT22;8882;53.192;8.184;2022-10-16T09:20:18;15.40;99.90
17529;DHT22;8882;53.192;8.184;2022-10-16T09:22:43;15.40;99.90
17529;DHT22;8882;53.192;8.184;2022-10-16T09:25:21;15.40;99.90
17529;DHT22;8882;53.192;8.184;2022-10-16T09:27:52;15.60;99.90
17529;DHT22;8882;53.192;8.184;2022-10-16T09:30:20;15.60;99.90
17529;DHT22;8882;53.192;8.184;2022-10-16T09:32:48;15.80;99.90
17529;DHT22;8882;53.192;8.184;2022-10-16T09:35:20;15.80;99.90
17529;DHT22;8882;53.192;8.184;2022-10-16T09:37:49;15.80;99.90
17529;DHT22;8882;53.192;8.184;2022-10-16T09:40:38;15.80;99.90
17529;DHT22;8882;53.192;8.184;2022-10-16T09:46:24;16.10;99.90
17529;DHT22;8882;53.192;8.184;2022-10-16T09:48:51;16.30;99.90
17529;DHT22;8882;53.192;8.184;2022-10-16T09:58:53;16.70;99.90
17529;DHT22;8882;53.192;8.184;2022-10-16T10:01:19;16.90;99.90
17529;DHT22;8882;53.192;8.184;2022-10-16T10:03:46;16.90;99.90
17529;DHT22;8882;53.192;8.184;2022-10-16T10:06:24;16.80;99.90
17529;DHT22;8882;53.192;8.184;2022-10-16T10:08:58;16.70;99.90
17529;DHT22;8882;53.192;8.184;2022-10-16T10:11:51;16.70;99.90
17529;DHT22;8882;53.192;8.184;2022-10-16T10:16:46;16.80;99.90
17529;DHT22;8882;53.192;8.184;2022-10-16T10:19:23;16.80;99.90
17529;DHT22;8882;53.192;8.184;2022-10-16T10:21:49;16.90;99.90
17529;DHT22;8882;53.192;8.184;2022-10-16T10:24:18;17.10;99.90
17529;DHT22;8882;53.192;8.184;2022-10-16T10:27:28;17.20;99.90
17529;DHT22;8882;53.192;8.184;2022-10-16T10:36:05;17.70;99.90
17529;DHT22;8882;53.192;8.184;2022-10-16T10:41:26;17.60;99.90
17529;DHT22;8882;53.192;8.184;2022-10-16T11:00:57;17.90;99.90
17529;DHT22;8882;53.192;8.184;2022-10-16T11:03:35;17.90;99.90
17529;DHT22;8882;53.192;8.184;2022-10-16T11:06:14;18.10;99.90
17529;DHT22;8882;53.192;8.184;2022-10-16T11:09:13;18.10;99.90
17529;DHT22;8882;53.192;8.184;2022-10-16T11:11:42;18.10;99.90
17529;DHT22;8882;53.192;8.184;2022-10-16T11:17:23;18.10;99.90
17529;DHT22;8882;53.192;8.184;2022-10-16T11:19:56;18.00;99.90
17529;DHT22;8882;53.192;8.184;2022-10-16T11:22:37;18.10;99.90
17529;DHT22;8882;53.192;8.184;2022-10-16T11:30:30;18.20;99.90
17529;DHT22;8882;53.192;8.184;2022-10-16T11:38:39;18.30;99.90
17529;DHT22;8882;53.192;8.184;2022-10-16T11:46:43;17.90;99.90
17529;DHT22;8882;53.192;8.184;2022-10-16T11:49:16;17.80;99.90
17529;DHT22;8882;53.192;8.184;2022-10-16T11:51:50;17.70;99.90
17529;DHT22;8882;53.192;8.184;2022-10-16T11:54:37;17.80;99.90
17529;DHT22;8882;53.192;8.184;2022-10-16T11:57:13;18.00;99.90
17529;DHT22;8882;53.192;8.184;2022-10-16T11:59:55;18.10;99.90
17529;DHT22;8882;53.192;8.184;2022-10-16T12:02:41;18.20;99.90
17529;DHT22;8882;53.192;8.184;2022-10-16T12:05:12;18.30;99.90
17529;DHT22;8882;53.192;8.184;2022-10-16T12:07:51;18.30;99.90
17529;DHT22;8882;53.192;8.184;2022-10-16T12:10:22;18.20;99.90
17529;DHT22;8882;53.192;8.184;2022-10-16T12:12:48;18.30;99.90
17529;DHT22;8882;53.192;8.184;2022-10-16T12:15:29;18.50;99.90
17529;DHT22;8882;53.192;8.184;2022-10-16T12:17:55;18.40;99.90
17529;DHT22;8882;53.192;8.184;2022-10-16T12:20:32;18.50;99.90
17529;DHT22;8882;53.192;8.184;2022-10-16T12:23:03;18.50;99.90
17529;DHT22;8882;53.192;8.184;2022-10-16T12:25:38;18.50;99.90
17529;DHT22;8882;53.192;8.184;2022-10-16T12:28:22;18.50;99.90
17529;DHT22;8882;53.192;8.184;2022-10-16T12:30:56;18.60;99.90
17529;DHT22;8882;53.192;8.184;2022-10-16T12:33:26;18.70;99.90
17529;DHT22;8882;53.192;8.184;2022-10-16T12:35:53;18.70;99.90
17529;DHT22;8882;53.192;8.184;2022-10-16T12:38:26;18.70;99.90
17529;DHT22;8882;53.192;8.184;2022-10-16T12:41:05;18.70;99.90
17529;DHT22;8882;53.192;8.184;2022-10-16T12:43:45;18.80;99.90
17529;DHT22;8882;53.192;8.184;2022-10-16T12:48:39;18.80;99.90
17529;DHT22;8882;53.192;8.184;2022-10-16T12:51:25;18.90;99.90
17529;DHT22;8882;53.192;8.184;2022-10-16T12:56:48;18.90;99.90
17529;DHT22;8882;53.192;8.184;2022-10-16T13:05:02;18.90;99.90
17529;DHT22;8882;53.192;8.184;2022-10-16T13:10:26;18.80;99.90
17529;DHT22;8882;53.192;8.184;2022-10-16T13:16:13;18.80;99.90
17529;DHT22;8882;53.192;8.184;2022-10-16T13:19:02;18.80;99.90
17529;DHT22;8882;53.192;8.184;2022-10-16T13:21:51;18.80;99.90
17529;DHT22;8882;53.192;8.184;2022-10-16T13:24:36;18.70;99.90
17529;DHT22;8882;53.192;8.184;2022-10-16T13:27:19;18.70;99.90
17529;DHT22;8882;53.192;8.184;2022-10-16T13:29:54;18.80;99.90
17529;DHT22;8882;53.192;8.184;2022-10-16T13:32:26;18.70;99.90
17529;DHT22;8882;53.192;8.184;2022-10-16T13:34:52;18.60;99.90
17529;DHT22;8882;53.192;8.184;2022-10-16T13:37:21;18.60;99.90
17529;DHT22;8882;53.192;8.184;2022-10-16T13:39:48;18.50;99.90
17529;DHT22;8882;53.192;8.184;2022-10-16T13:42:23;18.50;99.90
17529;DHT22;8882;53.192;8.184;2022-10-16T13:44:51;18.60;99.90
17529;DHT22;8882;53.192;8.184;2022-10-16T13:47:20;18.50;99.90
17529;DHT22;8882;53.192;8.184;2022-10-16T13:49:46;18.50;99.90
17529;DHT22;8882;53.192;8.184;2022-10-16T13:52:20;18.40;99.90
17529;DHT22;8882;53.192;8.184;2022-10-16T13:54:46;18.40;99.90
17529;DHT22;8882;53.192;8.184;2022-10-16T13:57:16;18.30;99.90
17529;DHT22;8882;53.192;8.184;2022-10-16T13:59:42;18.30;99.90
17529;DHT22;8882;53.192;8.184;2022-10-16T14:02:27;18.30;99.90
17529;DHT22;8882;53.192;8.184;2022-10-16T14:04:54;18.20;99.90
17529;DHT22;8882;53.192;8.184;2022-10-16T14:07:24;18.20;99.90
17529;DHT22;8882;53.192;8.184;2022-10-16T14:09:52;18.20;99.90
17529;DHT22;8882;53.192;8.184;2022-10-16T14:12:18;18.30;99.90
17529;DHT22;8882;53.192;8.184;2022-10-16T14:14:49;18.30;99.90
17529;DHT22;8882;53.192;8.184;2022-10-16T14:17:23;18.30;99.90
17529;DHT22;8882;53.192;8.184;2022-10-16T14:19:52;18.20;99.90
17529;DHT22;8882;53.192;8.184;2022-10-16T14:22:32;18.10;99.90
17529;DHT22;8882;53.192;8.184;2022-10-16T14:24:58;18.00;99.90
17529;DHT22;8882;53.192;8.184;2022-10-16T14:27:33;18.00;99.90
17529;DHT22;8882;53.192;8.184;2022-10-16T14:30:22;17.90;99.90
17529;DHT22;8882;53.192;8.184;2022-10-16T14:32:59;17.90;99.90
17529;DHT22;8882;53.192;8.184;2022-10-16T14:35:31;18.00;99.90
17529;DHT22;8882;53.192;8.184;2022-10-16T14:37:59;18.10;99.90
17529;DHT22;8882;53.192;8.184;2022-10-16T14:40:29;18.10;99.90
17529;DHT22;8882;53.192;8.184;2022-10-16T14:42:55;18.00;99.90
17529;DHT22;8882;53.192;8.184;2022-10-16T14:45:24;17.90;99.90
17529;DHT22;8882;53.192;8.184;2022-10-16T14:47:54;17.70;99.90
17529;DHT22;8882;53.192;8.184;2022-10-16T14:50:20;17.50;99.90
17529;DHT22;8882;53.192;8.184;2022-10-16T14:52:46;17.60;99.90
17529;DHT22;8882;53.192;8.184;2022-10-16T14:55:12;17.50;99.90
17529;DHT22;8882;53.192;8.184;2022-10-16T14:57:38;17.50;99.90
17529;DHT22;8882;53.192;8.184;2022-10-16T15:02:42;17.60;99.90
17529;DHT22;8882;53.192;8.184;2022-10-16T15:05:14;17.80;99.90
17529;DHT22;8882;53.192;8.184;2022-10-16T15:07:40;17.80;99.90
17529;DHT22;8882;53.192;8.184;2022-10-16T15:10:06;17.80;99.90
17529;DHT22;8882;53.192;8.184;2022-10-16T15:12:31;17.80;99.90
17529;DHT22;8882;53.192;8.184;2022-10-16T15:14:57;17.70;99.90
17529;DHT22;8882;53.192;8.184;2022-10-16T15:17:22;17.70;99.90
17529;DHT22;8882;53.192;8.184;2022-10-16T15:19:48;17.60;99.90
17529;DHT22;8882;53.192;8.184;2022-10-16T15:22:13;17.50;99.90
17529;DHT22;8882;53.192;8.184;2022-10-16T15:24:39;17.50;99.90
17529;DHT22;8882;53.192;8.184;2022-10-16T15:27:04;17.40;99.90
17529;DHT22;8882;53.192;8.184;2022-10-16T15:29:30;17.30;99.90
17529;DHT22;8882;53.192;8.184;2022-10-16T15:31:56;17.20;99.90
17529;DHT22;8882;53.192;8.184;2022-10-16T15:34:21;17.10;99.90
17529;DHT22;8882;53.192;8.184;2022-10-16T15:36:47;17.10;99.90
17529;DHT22;8882;53.192;8.184;2022-10-16T15:39:17;17.00;99.90
17529;DHT22;8882;53.192;8.184;2022-10-16T15:41:45;16.90;99.90
17529;DHT22;8882;53.192;8.184;2022-10-16T15:44:13;16.80;99.90
17529;DHT22;8882;53.192;8.184;2022-10-16T15:46:38;16.80;99.90
17529;DHT22;8882;53.192;8.184;2022-10-16T15:49:04;16.60;99.90
17529;DHT22;8882;53.192;8.184;2022-10-16T15:51:29;16.60;99.90
17529;DHT22;8882;53.192;8.184;2022-10-16T15:53:59;16.50;99.90
17529;DHT22;8882;53.192;8.184;2022-10-16T15:56:27;16.50;99.90
17529;DHT22;8882;53.192;8.184;2022-10-16T15:58:53;16.50;99.90
17529;DHT22;8882;53.192;8.184;2022-10-16T16:01:19;16.60;99.90
17529;DHT22;8882;53.192;8.184;2022-10-16T16:03:45;16.80;99.90
17529;DHT22;8882;53.192;8.184;2022-10-16T16:06:12;16.90;99.90
17529;DHT22;8882;53.192;8.184;2022-10-16T16:08:38;16.80;99.90
17529;DHT22;8882;53.192;8.184;2022-10-16T16:11:07;16.70;99.90
17529;DHT22;8882;53.192;8.184;2022-10-16T16:13:34;16.60;99.90
17529;DHT22;8882;53.192;8.184;2022-10-16T16:15:59;16.50;99.90
17529;DHT22;8882;53.192;8.184;2022-10-16T16:18:25;16.40;99.90
17529;DHT22;8882;53.192;8.184;2022-10-16T16:20:51;16.30;99.90
17529;DHT22;8882;53.192;8.184;2022-10-16T16:23:17;16.20;99.90
17529;DHT22;8882;53.192;8.184;2022-10-16T16:25:44;16.10;99.90
17529;DHT22;8882;53.192;8.184;2022-10-16T16:28:10;16.10;99.90
17529;DHT22;8882;53.192;8.184;2022-10-16T16:30:39;15.90;99.90
17529;DHT22;8882;53.192;8.184;2022-10-16T16:33:05;15.90;99.90
17529;DHT22;8882;53.192;8.184;2022-10-16T16:35:30;15.80;99.90
17529;DHT22;8882;53.192;8.184;2022-10-16T16:37:56;15.80;99.90
17529;DHT22;8882;53.192;8.184;2022-10-16T16:40:21;15.80;99.90
17529;DHT22;8882;53.192;8.184;2022-10-16T16:42:48;15.70;99.90
17529;DHT22;8882;53.192;8.184;2022-10-16T16:45:14;15.60;99.90
17529;DHT22;8882;53.192;8.184;2022-10-16T16:47:39;15.60;99.90
17529;DHT22;8882;53.192;8.184;2022-10-16T16:50:05;15.60;99.90
17529;DHT22;8882;53.192;8.184;2022-10-16T16:52:32;15.50;99.90
17529;DHT22;8882;53.192;8.184;2022-10-16T16:54:58;15.40;99.90
17529;DHT22;8882;53.192;8.184;2022-10-16T16:57:23;15.30;99.90
17529;DHT22;8882;53.192;8.184;2022-10-16T16:59:50;15.20;99.90
17529;DHT22;8882;53.192;8.184;2022-10-16T17:02:17;15.10;99.90
17529;DHT22;8882;53.192;8.184;2022-10-16T17:04:42;15.10;99.90
17529;DHT22;8882;53.192;8.184;2022-10-16T17:07:08;15.00;99.90
17529;DHT22;8882;53.192;8.184;2022-10-16T17:09:33;14.90;99.90
17529;DHT22;8882;53.192;8.184;2022-10-16T17:11:59;14.80;99.90
17529;DHT22;8882;53.192;8.184;2022-10-16T17:14:24;14.80;99.90
17529;DHT22;8882;53.192;8.184;2022-10-16T17:16:51;14.70;99.90
17529;DHT22;8882;53.192;8.184;2022-10-16T17:19:18;14.60;99.90
17529;DHT22;8882;53.192;8.184;2022-10-16T17:21:45;14.50;99.90
17529;DHT22;8882;53.192;8.184;2022-10-16T17:24:12;14.40;99.90
17529;DHT22;8882;53.192;8.184;2022-10-16T17:26:38;14.40;99.90
17529;DHT22;8882;53.192;8.184;2022-10-16T17:29:06;14.40;99.90
17529;DHT22;8882;53.192;8.184;2022-10-16T17:31:34;14.40;99.90
17529;DHT22;8882;53.192;8.184;2022-10-16T17:34:02;14.30;99.90
17529;DHT22;8882;53.192;8.184;2022-10-16T17:36:30;14.30;99.90
17529;DHT22;8882;53.192;8.184;2022-10-16T17:38:58;14.30;99.90
17529;DHT22;8882;53.192;8.184;2022-10-16T17:41:26;14.30;99.90
17529;DHT22;8882;53.192;8.184;2022-10-16T17:43:51;14.20;99.90
17529;DHT22;8882;53.192;8.184;2022-10-16T17:46:19;14.20;99.90
17529;DHT22;8882;53.192;8.184;2022-10-16T17:48:47;14.20;99.90
17529;DHT22;8882;53.192;8.184;2022-10-16T17:51:15;14.20;99.90
17529;DHT22;8882;53.192;8.184;2022-10-16T17:53:41;14.10;99.90
17529;DHT22;8882;53.192;8.184;2022-10-16T17:56:10;14.10;99.90
17529;DHT22;8882;53.192;8.184;2022-10-16T17:58:36;14.10;99.90
17529;DHT22;8882;53.192;8.184;2022-10-16T18:01:14;14.10;99.90
17529;DHT22;8882;53.192;8.184;2022-10-16T18:03:40;14.10;99.90
17529;DHT22;8882;53.192;8.184;2022-10-16T18:06:06;14.00;99.90
17529;DHT22;8882;53.192;8.184;2022-10-16T18:08:31;14.00;99.90
17529;DHT22;8882;53.192;8.184;2022-10-16T18:11:01;14.00;99.90
17529;DHT22;8882;53.192;8.184;2022-10-16T18:13:27;14.00;99.90
17529;DHT22;8882;53.192;8.184;2022-10-16T18:16:04;13.90;99.90
17529;DHT22;8882;53.192;8.184;2022-10-16T18:18:29;13.80;99.90
17529;DHT22;8882;53.192;8.184;2022-10-16T18:20:59;13.70;99.90
17529;DHT22;8882;53.192;8.184;2022-10-16T18:23:25;13.60;99.90
17529;DHT22;8882;53.192;8.184;2022-10-16T18:25:51;13.60;99.90
17529;DHT22;8882;53.192;8.184;2022-10-16T18:28:17;13.60;99.90
17529;DHT22;8882;53.192;8.184;2022-10-16T18:30:43;13.60;99.90
17529;DHT22;8882;53.192;8.184;2022-10-16T18:33:08;13.60;99.90
17529;DHT22;8882;53.192;8.184;2022-10-16T18:35:37;13.60;99.90
17529;DHT22;8882;53.192;8.184;2022-10-16T18:38:02;13.60;99.90
17529;DHT22;8882;53.192;8.184;2022-10-16T18:40:28;13.60;99.90
17529;DHT22;8882;53.192;8.184;2022-10-16T18:42:54;13.60;99.90
17529;DHT22;8882;53.192;8.184;2022-10-16T18:45:20;13.50;99.90
17529;DHT22;8882;53.192;8.184;2022-10-16T18:47:45;13.50;99.90
17529;DHT22;8882;53.192;8.184;2022-10-16T18:50:11;13.50;99.90
17529;DHT22;8882;53.192;8.184;2022-10-16T18:52:37;13.40;99.90
17529;DHT22;8882;53.192;8.184;2022-10-16T18:55:04;13.40;99.90
17529;DHT22;8882;53.192;8.184;2022-10-16T18:57:29;13.40;99.90
17529;DHT22;8882;53.192;8.184;2022-10-16T18:59:55;13.30;99.90
17529;DHT22;8882;53.192;8.184;2022-10-16T19:02:21;13.30;99.90
17529;DHT22;8882;53.192;8.184;2022-10-16T19:04:47;13.20;99.90
17529;DHT22;8882;53.192;8.184;2022-10-16T19:07:13;13.20;99.90
17529;DHT22;8882;53.192;8.184;2022-10-16T19:09:40;13.10;99.90
17529;DHT22;8882;53.192;8.184;2022-10-16T19:12:05;13.00;99.90
17529;DHT22;8882;53.192;8.184;2022-10-16T19:14:32;13.00;99.90
17529;DHT22;8882;53.192;8.184;2022-10-16T19:16:57;13.00;99.90
17529;DHT22;8882;53.192;8.184;2022-10-16T19:19:23;13.10;99.90
17529;DHT22;8882;53.192;8.184;2022-10-16T19:21:50;13.10;99.90
17529;DHT22;8882;53.192;8.184;2022-10-16T19:24:20;13.10;99.90
17529;DHT22;8882;53.192;8.184;2022-10-16T19:26:46;13.10;99.90
17529;DHT22;8882;53.192;8.184;2022-10-16T19:29:12;12.90;99.90
17529;DHT22;8882;53.192;8.184;2022-10-16T19:31:39;12.90;99.90
17529;DHT22;8882;53.192;8.184;2022-10-16T19:34:05;12.80;99.90
17529;DHT22;8882;53.192;8.184;2022-10-16T19:36:33;12.80;99.90
17529;DHT22;8882;53.192;8.184;2022-10-16T19:39:02;12.70;99.90
17529;DHT22;8882;53.192;8.184;2022-10-16T19:41:29;12.70;99.90
17529;DHT22;8882;53.192;8.184;2022-10-16T19:44:03;12.70;99.90
17529;DHT22;8882;53.192;8.184;2022-10-16T19:46:29;12.80;99.90
17529;DHT22;8882;53.192;8.184;2022-10-16T19:48:57;12.80;99.90
17529;DHT22;8882;53.192;8.184;2022-10-16T19:51:24;12.80;99.90
17529;DHT22;8882;53.192;8.184;2022-10-16T19:53:55;12.80;99.90
17529;DHT22;8882;53.192;8.184;2022-10-16T19:56:22;12.70;99.90
17529;DHT22;8882;53.192;8.184;2022-10-16T19:58:49;12.70;99.90
17529;DHT22;8882;53.192;8.184;2022-10-16T20:01:16;12.80;99.90
17529;DHT22;8882;53.192;8.184;2022-10-16T20:03:46;12.80;99.90
17529;DHT22;8882;53.192;8.184;2022-10-16T20:06:12;12.80;99.90
17529;DHT22;8882;53.192;8.184;2022-10-16T20:08:39;12.80;99.90
17529;DHT22;8882;53.192;8.184;2022-10-16T20:11:10;12.80;99.90
17529;DHT22;8882;53.192;8.184;2022-10-16T20:13:36;12.80;99.90
17529;DHT22;8882;53.192;8.184;2022-10-16T20:16:03;12.80;99.90
17529;DHT22;8882;53.192;8.184;2022-10-16T20:18:29;12.80;99.90
17529;DHT22;8882;53.192;8.184;2022-10-16T20:20:54;12.80;99.90
17529;DHT22;8882;53.192;8.184;2022-10-16T20:23:20;12.80;99.90
17529;DHT22;8882;53.192;8.184;2022-10-16T20:25:46;12.80;99.90
17529;DHT22;8882;53.192;8.184;2022-10-16T20:28:14;12.70;99.90
17529;DHT22;8882;53.192;8.184;2022-10-16T20:30:42;12.60;99.90
17529;DHT22;8882;53.192;8.184;2022-10-16T20:33:09;12.60;99.90
17529;DHT22;8882;53.192;8.184;2022-10-16T20:35:37;12.60;99.90
17529;DHT22;8882;53.192;8.184;2022-10-16T20:38:03;12.60;99.90
17529;DHT22;8882;53.192;8.184;2022-10-16T20:40:29;12.60;99.90
17529;DHT22;8882;53.192;8.184;2022-10-16T20:42:54;12.60;99.90
17529;DHT22;8882;53.192;8.184;2022-10-16T20:45:20;12.60;99.90
17529;DHT22;8882;53.192;8.184;2022-10-16T20:47:45;12.60;99.90
17529;DHT22;8882;53.192;8.184;2022-10-16T20:50:11;12.60;99.90
17529;DHT22;8882;53.192;8.184;2022-10-16T20:52:38;12.60;99.90
17529;DHT22;8882;53.192;8.184;2022-10-16T20:55:04;12.70;99.90
17529;DHT22;8882;53.192;8.184;2022-10-16T20:57:29;12.60;99.90
17529;DHT22;8882;53.192;8.184;2022-10-16T20:59:55;12.50;99.90
